createdAt,value
2023-02-09T00:02:10.381Z,-7.60
2023-02-09T00:07:13.629Z,-7.60
2023-02-09T00:12:35.757Z,-7.50
2023-02-09T00:17:39.460Z,-7.50
2023-02-09T00:22:42.844Z,-7.50
2023-02-09T00:27:46.240Z,-7.60
2023-02-09T00:32:49.569Z,-7.60
2023-02-09T00:37:52.983Z,-7.70
2023-02-09T00:42:56.394Z,-7.70
2023-02-09T00:48:00.542Z,-7.80
2023-02-09T00:53:03.885Z,-7.90
2023-02-09T00:58:07.789Z,-7.90
2023-02-09T01:03:11.407Z,-8.00
2023-02-09T01:08:14.729Z,-8.10
2023-02-09T01:13:18.047Z,-8.10
2023-02-09T01:18:21.592Z,-8.10
2023-02-09T01:23:24.866Z,-8.10
2023-02-09T01:28:28.294Z,-8.30
2023-02-09T01:33:32.412Z,-8.40
2023-02-09T01:38:35.637Z,-8.50
2023-02-09T01:43:58.557Z,-8.40
2023-02-09T01:49:16.334Z,-8.40
2023-02-09T01:54:38.659Z,-8.40
2023-02-09T01:59:45.415Z,-8.40
2023-02-09T02:04:49.207Z,-8.50
2023-02-09T02:09:53.125Z,-8.70
2023-02-09T02:14:56.827Z,-8.70
2023-02-09T02:20:18.573Z,-8.70
2023-02-09T02:25:52.755Z,-8.70
2023-02-09T02:31:28.813Z,-8.70
2023-02-09T02:37:10.192Z,-8.70
2023-02-09T02:42:42.392Z,-8.70
2023-02-09T02:47:58.823Z,-8.70
2023-02-09T02:53:06.351Z,-8.90
2023-02-09T02:58:13.546Z,-9.00
2023-02-09T03:03:22.370Z,-9.00
2023-02-09T03:08:25.753Z,-9.00
2023-02-09T03:13:59.450Z,-9.00
2023-02-09T03:19:14.962Z,-9.00
2023-02-09T03:24:40.165Z,-9.10
2023-02-09T03:29:49.827Z,-9.00
2023-02-09T03:34:53.617Z,-9.10
2023-02-09T03:39:57.027Z,-9.10
2023-02-09T03:45:00.746Z,-9.10
2023-02-09T03:50:07.301Z,-9.20
2023-02-09T03:55:10.570Z,-9.30
2023-02-09T04:00:14.676Z,-9.40
2023-02-09T04:05:18.162Z,-9.50
2023-02-09T04:10:21.636Z,-9.60
2023-02-09T04:15:25.054Z,-9.70
2023-02-09T04:20:28.354Z,-9.80
2023-02-09T04:25:31.923Z,-9.70
2023-02-09T04:30:35.349Z,-9.80
2023-02-09T04:35:38.694Z,-9.90
2023-02-09T04:40:42.357Z,-9.90
2023-02-09T04:45:46.032Z,-9.90
2023-02-09T04:50:50.128Z,-9.70
2023-02-09T04:55:54.258Z,-9.70
2023-02-09T05:00:58.333Z,-9.60
2023-02-09T05:06:04.651Z,-9.70
2023-02-09T05:11:08.180Z,-9.70
2023-02-09T05:16:15.423Z,-9.90
2023-02-09T05:21:18.893Z,-10.10
2023-02-09T05:26:22.090Z,-10.20
2023-02-09T05:31:25.465Z,-10.20
2023-02-09T05:36:28.801Z,-10.20
2023-02-09T05:41:50.427Z,-10.20
2023-02-09T05:46:53.930Z,-10.20
2023-02-09T05:51:57.322Z,-10.10
2023-02-09T05:57:00.531Z,-10.30
2023-02-09T06:17:44.445Z,-10.70
2023-02-09T06:22:47.943Z,-10.00
2023-02-09T06:27:51.238Z,-9.50
2023-02-09T06:32:54.894Z,-8.90
2023-02-09T06:37:59.426Z,-8.50
2023-02-09T06:43:02.759Z,-8.20
2023-02-09T06:48:06.766Z,-7.90
2023-02-09T06:53:10.198Z,-7.80
2023-02-09T06:58:13.519Z,-7.60
2023-02-09T07:03:17.578Z,-7.50
2023-02-09T07:08:21.198Z,-7.50
2023-02-09T07:13:24.412Z,-7.60
2023-02-09T07:18:28.335Z,-7.70
2023-02-09T07:23:31.830Z,-7.70
2023-02-09T07:28:37.255Z,-7.80
2023-02-09T07:33:41.043Z,-7.80
2023-02-09T07:38:44.423Z,-7.80
2023-02-09T07:43:48.734Z,-7.70
2023-02-09T07:48:52.300Z,-7.60
2023-02-09T07:53:58.828Z,-7.40
2023-02-09T07:59:02.811Z,-7.30
2023-02-09T08:04:06.065Z,-7.00
2023-02-09T08:09:11.534Z,-6.70
2023-02-09T08:14:25.753Z,-6.40
2023-02-09T08:19:31.039Z,-6.10
2023-02-09T08:24:34.785Z,-5.80
2023-02-09T08:29:42.647Z,-5.60
2023-02-09T08:34:45.730Z,-5.40
2023-02-09T08:39:49.156Z,-5.00
2023-02-09T08:44:52.796Z,-4.40
2023-02-09T08:49:56.388Z,-3.70
2023-02-09T08:55:00.091Z,-3.20
2023-02-09T09:00:04.589Z,-2.80
2023-02-09T09:05:09.101Z,-2.50
2023-02-09T09:10:13.442Z,-2.20
2023-02-09T09:15:17.033Z,-2.00
2023-02-09T09:20:20.570Z,-1.80
2023-02-09T09:25:23.789Z,-1.60
2023-02-09T09:30:28.026Z,-1.40
2023-02-09T09:35:31.657Z,-1.30
2023-02-09T09:40:36.986Z,-1.10
2023-02-09T09:45:40.745Z,-0.90
2023-02-09T09:50:46.203Z,-0.60
2023-02-09T09:55:55.614Z,-0.40
2023-02-09T10:00:59.132Z,-0.20
2023-02-09T10:06:15.851Z,-0.10
2023-02-09T10:11:25.559Z,0.00
2023-02-09T10:16:36.127Z,0.10
2023-02-09T10:21:40.742Z,0.30
2023-02-09T10:26:45.628Z,0.40
2023-02-09T10:31:55.581Z,0.20
2023-02-09T10:37:20.969Z,0.30
2023-02-09T10:42:33.997Z,0.50
2023-02-09T10:47:39.018Z,0.70
2023-02-09T10:53:02.354Z,0.80
2023-02-09T10:58:11.943Z,0.80
2023-02-09T11:03:25.782Z,0.70
2023-02-09T11:08:46.514Z,0.30
2023-02-09T11:13:50.447Z,0.00
2023-02-09T11:19:14.624Z,-0.10
2023-02-09T11:25:12.180Z,-0.20
2023-02-09T11:30:43.072Z,-0.30
2023-02-09T11:35:59.270Z,0.00
2023-02-09T11:41:24.471Z,0.40
2023-02-09T11:46:32.295Z,0.70
2023-02-09T11:51:38.809Z,1.20
2023-02-09T11:56:46.778Z,1.50
2023-02-09T12:02:04.941Z,1.50
2023-02-09T12:07:17.551Z,1.60
2023-02-09T12:12:39.699Z,2.00
2023-02-09T12:17:46.017Z,2.50
2023-02-09T12:23:08.143Z,2.80
2023-02-09T12:28:17.300Z,3.00
2023-02-09T12:33:31.361Z,3.00
2023-02-09T12:39:04.646Z,3.00
2023-02-09T12:44:11.683Z,3.30
2023-02-09T12:49:14.941Z,3.50
2023-02-09T12:54:46.210Z,3.40
2023-02-09T12:59:53.686Z,3.40
2023-02-09T13:05:10.231Z,3.40
2023-02-09T13:10:26.011Z,3.40
2023-02-09T13:15:47.686Z,3.30
2023-02-09T13:20:57.955Z,3.20
2023-02-09T13:26:24.346Z,3.20
2023-02-09T13:31:36.138Z,3.00
2023-02-09T13:37:15.189Z,2.70
2023-02-09T13:42:21.379Z,2.70
2023-02-09T13:47:26.162Z,2.70
2023-02-09T13:52:39.139Z,2.70
2023-02-09T13:57:46.158Z,2.90
2023-02-09T14:03:01.303Z,3.10
2023-02-09T14:08:05.310Z,3.20
2023-02-09T14:13:15.311Z,3.20
2023-02-09T14:18:40.438Z,3.20
2023-02-09T14:24:08.705Z,3.20
2023-02-09T14:29:16.902Z,3.20
2023-02-09T14:34:40.782Z,3.10
2023-02-09T14:39:55.189Z,3.20
2023-02-09T14:45:15.698Z,3.20
2023-02-09T14:50:22.636Z,2.90
2023-02-09T14:55:30.138Z,2.60
2023-02-09T15:00:34.280Z,2.40
2023-02-09T15:05:37.925Z,2.10
2023-02-09T15:10:48.839Z,1.90
2023-02-09T15:15:52.644Z,1.80
2023-02-09T15:20:56.441Z,1.80
2023-02-09T15:25:59.844Z,1.70
2023-02-09T15:31:04.164Z,1.60
2023-02-09T15:36:08.895Z,1.40
2023-02-09T15:41:31.059Z,1.30
2023-02-09T15:46:53.428Z,1.10
2023-02-09T15:51:57.717Z,1.00
2023-02-09T15:57:01.814Z,0.80
2023-02-09T16:02:24.061Z,0.70
2023-02-09T16:07:27.597Z,0.60
2023-02-09T16:12:31.152Z,0.40
2023-02-09T16:17:43.294Z,0.20
2023-02-09T16:22:53.521Z,0.10
2023-02-09T16:27:58.321Z,0.00
2023-02-09T16:33:04.419Z,-0.20
2023-02-09T16:38:21.432Z,-0.20
2023-02-09T16:43:25.377Z,-0.40
2023-02-09T16:48:35.070Z,-0.50
2023-02-09T16:53:52.300Z,-0.60
2023-02-09T16:58:56.960Z,-0.60
2023-02-09T17:04:02.362Z,-0.80
2023-02-09T17:09:13.560Z,-0.70
2023-02-09T17:14:19.248Z,-0.60
2023-02-09T17:19:33.102Z,-0.50
2023-02-09T17:24:45.899Z,-0.50
2023-02-09T17:29:49.578Z,-0.50
2023-02-09T17:34:55.317Z,-0.50
2023-02-09T17:40:06.576Z,-0.50
2023-02-09T17:45:22.372Z,-0.50
2023-02-09T17:50:27.830Z,-0.60
2023-02-09T17:55:32.607Z,-0.60
2023-02-09T18:00:40.572Z,-0.70
2023-02-09T18:05:49.529Z,-0.90
2023-02-09T18:10:56.630Z,-1.10
2023-02-09T18:16:03.353Z,-1.20
2023-02-09T18:21:13.982Z,-1.30
2023-02-09T18:26:19.409Z,-1.60
2023-02-09T18:31:26.163Z,-1.60
2023-02-09T18:36:33.926Z,-1.70
2023-02-09T18:41:42.426Z,-1.80
2023-02-09T18:46:48.804Z,-1.90
2023-02-09T18:51:54.243Z,-1.90
2023-02-09T18:57:02.914Z,-1.70
2023-02-09T19:02:16.454Z,-1.60
2023-02-09T19:07:22.918Z,-1.40
2023-02-09T19:12:35.158Z,-1.30
2023-02-09T19:17:48.057Z,-1.10
2023-02-09T19:22:57.606Z,-1.00
2023-02-09T19:28:03.599Z,-0.80
2023-02-09T19:33:09.151Z,-0.70
2023-02-09T19:38:14.412Z,-0.60
2023-02-09T19:43:21.883Z,-0.60
2023-02-09T19:48:32.668Z,-0.50
2023-02-09T19:53:40.840Z,-0.60
2023-02-09T19:58:47.509Z,-0.60
2023-02-09T20:03:54.757Z,-0.60
2023-02-09T20:09:04.406Z,-0.60
2023-02-09T20:14:14.347Z,-0.70
2023-02-09T20:19:19.737Z,-0.80
2023-02-09T20:24:27.386Z,-0.90
2023-02-09T20:29:32.963Z,-1.10
2023-02-09T20:34:39.949Z,-1.20
2023-02-09T20:39:46.442Z,-1.10
2023-02-09T20:45:10.392Z,-0.90
2023-02-09T20:50:18.195Z,-0.90
2023-02-09T20:55:29.094Z,-0.70
2023-02-09T21:00:34.386Z,-0.70
2023-02-09T21:05:40.750Z,-0.70
2023-02-09T21:10:47.818Z,-0.70
2023-02-09T21:15:53.965Z,-0.70
2023-02-09T21:21:01.635Z,-0.80
2023-02-09T21:26:08.881Z,-0.80
2023-02-09T21:31:18.452Z,-0.90
2023-02-09T21:36:24.030Z,-0.90
2023-02-09T21:41:46.961Z,-0.90
2023-02-09T21:46:51.084Z,-0.90
2023-02-09T21:51:54.577Z,-0.90
2023-02-09T21:56:57.702Z,-0.80
2023-02-09T22:02:00.982Z,-0.90
2023-02-09T22:07:04.681Z,-1.10
2023-02-09T22:12:09.144Z,-1.40
2023-02-09T22:17:15.604Z,-1.50
2023-02-09T22:22:20.106Z,-1.70
2023-02-09T22:27:23.767Z,-1.80
2023-02-09T22:32:27.161Z,-1.90
2023-02-09T22:37:30.837Z,-1.90
2023-02-09T22:42:34.504Z,-1.90
2023-02-09T22:47:38.241Z,-2.00
2023-02-09T22:52:41.422Z,-1.90
2023-02-09T22:57:44.824Z,-1.90
2023-02-09T23:02:49.281Z,-1.90
2023-02-09T23:07:52.710Z,-1.90
2023-02-09T23:12:55.893Z,-2.00
2023-02-09T23:17:59.163Z,-2.20
2023-02-09T23:23:06.922Z,-2.40
2023-02-09T23:28:10.299Z,-2.60
2023-02-09T23:33:13.638Z,-2.60
2023-02-09T23:38:18.447Z,-2.40
2023-02-09T23:43:21.877Z,-2.30
2023-02-09T23:48:25.669Z,-2.10
2023-02-09T23:53:30.379Z,-2.00
2023-02-09T23:58:38.646Z,-1.90
